Terminal Aerodrome Forecast
Issued by NWS Memphis, TN

Home | Current Version | Previous Version | Text Only | Print | Product List | Glossary On
Versions: 1 2 3 4 5 6 7 8 9 10 11 12 13
246
FTUS44 KMEG 211730
TAFJBR
TAF
KJBR 211730Z 2118/2218 11010KT P6SM FEW060 SCT120
     FM212300 10008KT P6SM VCSH BKN050 OVC120
     FM220400 09009KT P6SM -SHRA SCT015 OVC035
     FM220700 08010KT 6SM -SHRA OVC015
      TEMPO 2209/2213 4SM SHRA OVC009=

USA.gov is the U.S. government's official web portal to all federal, state and local government web resources and services.